This is the latest recevied weather packets stored in our database for station/object SQ9NFI-4. If no packets are shown the sender has not sent any weather packets the latest 10 day(s).
| Time | Temp. | Humidity | Pressure | Rain* | Wind** | Luminosity | Snow |
|---|---|---|---|---|---|---|---|
| 1778048678 | 19.44° C | 53% | 1007.5 hPa | 0 mm | - | 323 W/m² | - |
| 1778048378 | 20° C | 53% | 1007.5 hPa | 0 mm | - | 310 W/m² | - |
| 1778048078 | 20° C | 53% | 1007.5 hPa | 0 mm | - | 296 W/m² | - |
| 1778047778 | 19.44° C | 53% | 1007.5 hPa | 0 mm | - | 282 W/m² | - |
| 1778047478 | 19.44° C | 52% | 1007.5 hPa | 0 mm | - | 268 W/m² | - |
| 1778046878 | 19.44° C | 53% | 1006.8 hPa | 0 mm | - | 240 W/m² | - |
| 1778046578 | 19.44° C | 55% | 1006.8 hPa | 0 mm | - | 231 W/m² | - |
| 1778046278 | 19.44° C | 55% | 1006.8 hPa | 0 mm | - | 215 W/m² | - |
| 1778045678 | 18.89° C | 55% | 1006.8 hPa | 0 mm | - | 192 W/m² | - |
| 1778045378 | 18.33° C | 55% | 1006.8 hPa | 0 mm | - | 183 W/m² | - |
| 1778045078 | 18.33° C | 56% | 1006.8 hPa | 0 mm | - | 176 W/m² | - |
| 1778044777 | 18.33° C | 58% | 1006.8 hPa | 0 mm | - | 161 W/m² | - |
| 1778044477 | 18.33° C | 56% | 1006.8 hPa | 0 mm | - | 146 W/m² | - |
| 1778044178 | 18.33° C | 58% | 1006.8 hPa | 0 mm | - | 142 W/m² | - |
| 1778043877 | 18.33° C | 59% | 1006.8 hPa | 0 mm | - | 128 W/m² | - |
| 1778043577 | 17.78° C | 57% | 1006.8 hPa | 0 mm | - | 46 W/m² | - |
| 1778043278 | 18.33° C | 58% | 1006.8 hPa | 0 mm | - | 108 W/m² | - |
| 1778042977 | 17.78° C | 59% | 1006.8 hPa | 0 mm | - | 86 W/m² | - |
| 1778042677 | 17.78° C | 58% | 1006.8 hPa | 0 mm | - | 37 W/m² | - |
| 1778042377 | 17.78° C | 59% | 1006.8 hPa | 0 mm | - | 82 W/m² | - |
| 1778042077 | 17.22° C | 59% | 1006.8 hPa | 0 mm | - | 76 W/m² | - |
| 1778041778 | 16.67° C | 61% | 1006.8 hPa | 0 mm | - | 68 W/m² | - |
| 1778041477 | 16.67° C | 61% | 1006.8 hPa | 0 mm | - | 35 W/m² | - |
| 1778041177 | 15.56° C | 64% | 1006.8 hPa | 0 mm | - | 51 W/m² | - |
| 1778040877 | 15.56° C | 64% | 1006.8 hPa | 0 mm | - | 26 W/m² | - |
* Rain latest hour (hover to see other rain measurements)
** Current wind speed in m/s (hover to see current wind gust speed)